sensor_id;sensor_type;location;lat;lon;timestamp;P1;durP1;ratioP1;P2;durP2;ratioP2
26181;SDS011;13927;51.534;11.866;2023-08-31T00:01:21;3.53;;;1.80;;
26181;SDS011;13927;51.534;11.866;2023-08-31T00:03:49;2.97;;;1.73;;
26181;SDS011;13927;51.534;11.866;2023-08-31T00:06:15;2.72;;;1.73;;
26181;SDS011;13927;51.534;11.866;2023-08-31T00:08:43;2.45;;;1.50;;
26181;SDS011;13927;51.534;11.866;2023-08-31T00:14:47;2.15;;;1.40;;
26181;SDS011;13927;51.534;11.866;2023-08-31T00:17:16;1.77;;;1.48;;
26181;SDS011;13927;51.534;11.866;2023-08-31T00:19:45;1.55;;;1.23;;
26181;SDS011;13927;51.534;11.866;2023-08-31T00:22:12;1.98;;;1.00;;
26181;SDS011;13927;51.534;11.866;2023-08-31T00:24:38;2.13;;;1.33;;
26181;SDS011;13927;51.534;11.866;2023-08-31T00:27:05;2.05;;;1.45;;
26181;SDS011;13927;51.534;11.866;2023-08-31T00:29:32;1.73;;;1.25;;
26181;SDS011;13927;51.534;11.866;2023-08-31T00:32:05;2.13;;;1.27;;
26181;SDS011;13927;51.534;11.866;2023-08-31T00:38:15;1.67;;;1.33;;
26181;SDS011;13927;51.534;11.866;2023-08-31T00:40:41;1.65;;;1.17;;
26181;SDS011;13927;51.534;11.866;2023-08-31T00:43:10;1.63;;;1.10;;
26181;SDS011;13927;51.534;11.866;2023-08-31T00:45:41;2.13;;;1.40;;
26181;SDS011;13927;51.534;11.866;2023-08-31T00:48:33;2.15;;;1.48;;
26181;SDS011;13927;51.534;11.866;2023-08-31T00:51:05;2.83;;;1.50;;
26181;SDS011;13927;51.534;11.866;2023-08-31T00:53:49;1.55;;;0.98;;
26181;SDS011;13927;51.534;11.866;2023-08-31T00:56:21;1.67;;;1.25;;
26181;SDS011;13927;51.534;11.866;2023-08-31T00:58:52;7.25;;;1.63;;
26181;SDS011;13927;51.534;11.866;2023-08-31T01:05:29;4.43;;;1.30;;
26181;SDS011;13927;51.534;11.866;2023-08-31T01:11:34;1.83;;;1.30;;
26181;SDS011;13927;51.534;11.866;2023-08-31T01:14:17;2.03;;;1.35;;
26181;SDS011;13927;51.534;11.866;2023-08-31T01:16:48;2.80;;;1.50;;
26181;SDS011;13927;51.534;11.866;2023-08-31T01:22:25;2.55;;;1.40;;
26181;SDS011;13927;51.534;11.866;2023-08-31T01:25:05;2.78;;;1.38;;
26181;SDS011;13927;51.534;11.866;2023-08-31T01:27:34;1.60;;;1.30;;
26181;SDS011;13927;51.534;11.866;2023-08-31T01:30:04;1.52;;;1.20;;
26181;SDS011;13927;51.534;11.866;2023-08-31T01:32:34;2.80;;;1.55;;
26181;SDS011;13927;51.534;11.866;2023-08-31T01:35:01;2.15;;;1.40;;
26181;SDS011;13927;51.534;11.866;2023-08-31T01:40:13;2.10;;;1.27;;
26181;SDS011;13927;51.534;11.866;2023-08-31T01:42:44;3.10;;;1.55;;
26181;SDS011;13927;51.534;11.866;2023-08-31T01:45:20;1.60;;;1.40;;
26181;SDS011;13927;51.534;11.866;2023-08-31T01:47:47;4.38;;;1.48;;
26181;SDS011;13927;51.534;11.866;2023-08-31T01:50:17;2.15;;;1.45;;
26181;SDS011;13927;51.534;11.866;2023-08-31T01:52:45;1.85;;;1.23;;
26181;SDS011;13927;51.534;11.866;2023-08-31T01:55:11;1.55;;;1.15;;
26181;SDS011;13927;51.534;11.866;2023-08-31T01:57:40;2.38;;;1.40;;
26181;SDS011;13927;51.534;11.866;2023-08-31T02:00:06;2.08;;;1.17;;
26181;SDS011;13927;51.534;11.866;2023-08-31T02:02:34;1.95;;;1.55;;
26181;SDS011;13927;51.534;11.866;2023-08-31T02:05:01;2.92;;;1.20;;
26181;SDS011;13927;51.534;11.866;2023-08-31T02:07:29;3.35;;;1.35;;
26181;SDS011;13927;51.534;11.866;2023-08-31T02:09:55;1.90;;;1.50;;
26181;SDS011;13927;51.534;11.866;2023-08-31T02:12:20;2.15;;;1.45;;
26181;SDS011;13927;51.534;11.866;2023-08-31T02:14:47;1.45;;;1.13;;
26181;SDS011;13927;51.534;11.866;2023-08-31T02:17:19;2.95;;;1.70;;
26181;SDS011;13927;51.534;11.866;2023-08-31T02:19:44;2.25;;;1.40;;
26181;SDS011;13927;51.534;11.866;2023-08-31T02:22:10;2.05;;;1.45;;
26181;SDS011;13927;51.534;11.866;2023-08-31T02:24:36;2.08;;;1.65;;
26181;SDS011;13927;51.534;11.866;2023-08-31T02:27:02;2.50;;;1.48;;
26181;SDS011;13927;51.534;11.866;2023-08-31T02:29:28;3.05;;;1.50;;
26181;SDS011;13927;51.534;11.866;2023-08-31T02:31:53;4.30;;;1.75;;
26181;SDS011;13927;51.534;11.866;2023-08-31T02:34:19;4.50;;;2.00;;
26181;SDS011;13927;51.534;11.866;2023-08-31T02:36:45;2.88;;;1.63;;
26181;SDS011;13927;51.534;11.866;2023-08-31T02:39:13;3.20;;;2.35;;
26181;SDS011;13927;51.534;11.866;2023-08-31T02:41:40;3.20;;;1.83;;
26181;SDS011;13927;51.534;11.866;2023-08-31T02:44:09;3.50;;;2.22;;
26181;SDS011;13927;51.534;11.866;2023-08-31T02:46:36;4.10;;;2.40;;
26181;SDS011;13927;51.534;11.866;2023-08-31T02:49:02;2.63;;;1.90;;
26181;SDS011;13927;51.534;11.866;2023-08-31T02:51:27;3.25;;;2.50;;
26181;SDS011;13927;51.534;11.866;2023-08-31T02:53:53;4.90;;;3.10;;
26181;SDS011;13927;51.534;11.866;2023-08-31T02:56:19;4.63;;;3.35;;
26181;SDS011;13927;51.534;11.866;2023-08-31T02:58:44;5.32;;;3.65;;
26181;SDS011;13927;51.534;11.866;2023-08-31T03:01:11;4.60;;;3.67;;
26181;SDS011;13927;51.534;11.866;2023-08-31T03:03:58;5.25;;;3.80;;
26181;SDS011;13927;51.534;11.866;2023-08-31T03:06:23;6.10;;;3.97;;
26181;SDS011;13927;51.534;11.866;2023-08-31T03:08:50;6.43;;;4.57;;
26181;SDS011;13927;51.534;11.866;2023-08-31T03:11:16;5.45;;;4.45;;
26181;SDS011;13927;51.534;11.866;2023-08-31T03:13:42;5.60;;;4.40;;
26181;SDS011;13927;51.534;11.866;2023-08-31T03:16:08;5.70;;;4.78;;
26181;SDS011;13927;51.534;11.866;2023-08-31T03:18:33;6.38;;;4.70;;
26181;SDS011;13927;51.534;11.866;2023-08-31T03:21:02;5.38;;;4.88;;
26181;SDS011;13927;51.534;11.866;2023-08-31T03:23:36;7.32;;;4.50;;
26181;SDS011;13927;51.534;11.866;2023-08-31T03:26:08;6.53;;;5.05;;
26181;SDS011;13927;51.534;11.866;2023-08-31T03:28:34;5.30;;;4.45;;
26181;SDS011;13927;51.534;11.866;2023-08-31T03:31:00;7.20;;;4.88;;
26181;SDS011;13927;51.534;11.866;2023-08-31T03:33:26;6.38;;;4.55;;
26181;SDS011;13927;51.534;11.866;2023-08-31T03:35:53;8.05;;;4.72;;
26181;SDS011;13927;51.534;11.866;2023-08-31T03:38:28;6.00;;;4.63;;
26181;SDS011;13927;51.534;11.866;2023-08-31T03:40:59;4.45;;;4.00;;
26181;SDS011;13927;51.534;11.866;2023-08-31T03:43:25;5.20;;;4.10;;
26181;SDS011;13927;51.534;11.866;2023-08-31T03:48:41;5.20;;;4.70;;
26181;SDS011;13927;51.534;11.866;2023-08-31T03:51:10;6.28;;;4.50;;
26181;SDS011;13927;51.534;11.866;2023-08-31T03:53:36;8.93;;;4.85;;
26181;SDS011;13927;51.534;11.866;2023-08-31T03:56:01;7.20;;;5.10;;
26181;SDS011;13927;51.534;11.866;2023-08-31T03:58:29;6.97;;;5.28;;
26181;SDS011;13927;51.534;11.866;2023-08-31T04:00:55;5.90;;;4.95;;
26181;SDS011;13927;51.534;11.866;2023-08-31T04:03:21;6.88;;;5.43;;
26181;SDS011;13927;51.534;11.866;2023-08-31T04:05:48;7.68;;;5.32;;
26181;SDS011;13927;51.534;11.866;2023-08-31T04:08:18;8.23;;;6.50;;
26181;SDS011;13927;51.534;11.866;2023-08-31T04:10:44;8.00;;;5.32;;
26181;SDS011;13927;51.534;11.866;2023-08-31T04:13:10;8.20;;;5.03;;
26181;SDS011;13927;51.534;11.866;2023-08-31T04:15:36;7.35;;;5.60;;
26181;SDS011;13927;51.534;11.866;2023-08-31T04:18:01;7.05;;;5.28;;
26181;SDS011;13927;51.534;11.866;2023-08-31T04:20:27;10.50;;;5.72;;
26181;SDS011;13927;51.534;11.866;2023-08-31T04:22:58;6.93;;;5.93;;
26181;SDS011;13927;51.534;11.866;2023-08-31T04:25:23;8.80;;;6.50;;
26181;SDS011;13927;51.534;11.866;2023-08-31T04:27:49;6.25;;;5.65;;
26181;SDS011;13927;51.534;11.866;2023-08-31T04:30:15;8.88;;;6.35;;
26181;SDS011;13927;51.534;11.866;2023-08-31T04:32:40;7.18;;;5.95;;
26181;SDS011;13927;51.534;11.866;2023-08-31T04:35:07;10.95;;;7.18;;
26181;SDS011;13927;51.534;11.866;2023-08-31T04:37:34;8.27;;;6.22;;
26181;SDS011;13927;51.534;11.866;2023-08-31T04:39:59;7.88;;;6.63;;
26181;SDS011;13927;51.534;11.866;2023-08-31T04:42:25;8.13;;;6.35;;
26181;SDS011;13927;51.534;11.866;2023-08-31T04:44:51;7.47;;;6.22;;
26181;SDS011;13927;51.534;11.866;2023-08-31T04:47:17;8.05;;;6.15;;
26181;SDS011;13927;51.534;11.866;2023-08-31T04:49:42;7.68;;;6.55;;
26181;SDS011;13927;51.534;11.866;2023-08-31T04:52:09;8.77;;;6.10;;
26181;SDS011;13927;51.534;11.866;2023-08-31T04:54:34;6.75;;;5.68;;
26181;SDS011;13927;51.534;11.866;2023-08-31T04:57:06;6.95;;;5.68;;
26181;SDS011;13927;51.534;11.866;2023-08-31T04:59:32;8.95;;;7.32;;
26181;SDS011;13927;51.534;11.866;2023-08-31T05:01:58;8.30;;;6.80;;
26181;SDS011;13927;51.534;11.866;2023-08-31T05:04:26;9.25;;;6.53;;
26181;SDS011;13927;51.534;11.866;2023-08-31T05:06:56;9.93;;;6.30;;
26181;SDS011;13927;51.534;11.866;2023-08-31T05:09:23;8.80;;;6.50;;
26181;SDS011;13927;51.534;11.866;2023-08-31T05:11:50;8.75;;;7.22;;
26181;SDS011;13927;51.534;11.866;2023-08-31T05:14:19;9.57;;;7.00;;
26181;SDS011;13927;51.534;11.866;2023-08-31T05:16:44;10.65;;;7.18;;
26181;SDS011;13927;51.534;11.866;2023-08-31T05:19:10;8.18;;;6.43;;
26181;SDS011;13927;51.534;11.866;2023-08-31T05:21:36;8.40;;;6.28;;
26181;SDS011;13927;51.534;11.866;2023-08-31T05:24:01;8.57;;;6.78;;
26181;SDS011;13927;51.534;11.866;2023-08-31T05:26:28;11.45;;;7.47;;
26181;SDS011;13927;51.534;11.866;2023-08-31T05:28:56;8.65;;;6.25;;
26181;SDS011;13927;51.534;11.866;2023-08-31T05:31:22;10.07;;;6.93;;
26181;SDS011;13927;51.534;11.866;2023-08-31T05:33:48;8.18;;;6.22;;
26181;SDS011;13927;51.534;11.866;2023-08-31T05:36:13;9.43;;;6.57;;
26181;SDS011;13927;51.534;11.866;2023-08-31T05:38:39;11.00;;;6.97;;
26181;SDS011;13927;51.534;11.866;2023-08-31T05:41:08;7.78;;;6.22;;
26181;SDS011;13927;51.534;11.866;2023-08-31T05:43:35;8.05;;;7.25;;
26181;SDS011;13927;51.534;11.866;2023-08-31T05:46:01;8.85;;;7.05;;
26181;SDS011;13927;51.534;11.866;2023-08-31T05:48:27;8.75;;;6.32;;
26181;SDS011;13927;51.534;11.866;2023-08-31T05:50:54;8.05;;;6.45;;
26181;SDS011;13927;51.534;11.866;2023-08-31T05:53:20;8.27;;;6.70;;
26181;SDS011;13927;51.534;11.866;2023-08-31T05:55:46;7.38;;;6.55;;
26181;SDS011;13927;51.534;11.866;2023-08-31T05:58:12;9.60;;;7.30;;
26181;SDS011;13927;51.534;11.866;2023-08-31T06:00:38;11.55;;;7.35;;
26181;SDS011;13927;51.534;11.866;2023-08-31T06:03:07;13.68;;;7.68;;
26181;SDS011;13927;51.534;11.866;2023-08-31T06:05:33;11.13;;;7.35;;
26181;SDS011;13927;51.534;11.866;2023-08-31T06:07:59;8.65;;;6.93;;
26181;SDS011;13927;51.534;11.866;2023-08-31T06:10:25;9.98;;;7.20;;
26181;SDS011;13927;51.534;11.866;2023-08-31T06:12:54;9.77;;;7.63;;
26181;SDS011;13927;51.534;11.866;2023-08-31T06:15:19;10.90;;;8.20;;
26181;SDS011;13927;51.534;11.866;2023-08-31T06:17:48;9.45;;;7.93;;
26181;SDS011;13927;51.534;11.866;2023-08-31T06:20:14;10.45;;;7.55;;
26181;SDS011;13927;51.534;11.866;2023-08-31T06:22:39;9.88;;;6.85;;
26181;SDS011;13927;51.534;11.866;2023-08-31T06:25:08;8.27;;;6.30;;
26181;SDS011;13927;51.534;11.866;2023-08-31T06:27:36;7.68;;;6.32;;
26181;SDS011;13927;51.534;11.866;2023-08-31T06:30:02;10.27;;;6.05;;
26181;SDS011;13927;51.534;11.866;2023-08-31T06:32:28;9.98;;;6.25;;
26181;SDS011;13927;51.534;11.866;2023-08-31T06:35:00;12.35;;;6.72;;
26181;SDS011;13927;51.534;11.866;2023-08-31T06:37:29;6.60;;;6.00;;
26181;SDS011;13927;51.534;11.866;2023-08-31T06:39:55;8.95;;;6.93;;
26181;SDS011;13927;51.534;11.866;2023-08-31T06:42:20;9.05;;;6.70;;
26181;SDS011;13927;51.534;11.866;2023-08-31T06:44:46;7.75;;;6.05;;
26181;SDS011;13927;51.534;11.866;2023-08-31T06:47:12;8.10;;;6.28;;
26181;SDS011;13927;51.534;11.866;2023-08-31T06:49:41;9.50;;;7.18;;
26181;SDS011;13927;51.534;11.866;2023-08-31T06:52:07;9.80;;;5.95;;
26181;SDS011;13927;51.534;11.866;2023-08-31T06:54:36;10.98;;;6.13;;
26181;SDS011;13927;51.534;11.866;2023-08-31T06:57:02;9.45;;;7.18;;
26181;SDS011;13927;51.534;11.866;2023-08-31T06:59:29;7.28;;;6.43;;
26181;SDS011;13927;51.534;11.866;2023-08-31T07:01:54;10.25;;;7.00;;
26181;SDS011;13927;51.534;11.866;2023-08-31T07:04:20;11.93;;;7.82;;
26181;SDS011;13927;51.534;11.866;2023-08-31T07:06:49;10.18;;;7.45;;
26181;SDS011;13927;51.534;11.866;2023-08-31T07:09:15;8.43;;;7.50;;
26181;SDS011;13927;51.534;11.866;2023-08-31T07:11:41;8.82;;;7.63;;
26181;SDS011;13927;51.534;11.866;2023-08-31T07:14:06;9.02;;;8.05;;
26181;SDS011;13927;51.534;11.866;2023-08-31T07:16:35;10.40;;;8.52;;
26181;SDS011;13927;51.534;11.866;2023-08-31T07:19:01;9.35;;;7.78;;
26181;SDS011;13927;51.534;11.866;2023-08-31T07:21:28;8.82;;;7.22;;
26181;SDS011;13927;51.534;11.866;2023-08-31T07:23:53;13.02;;;8.07;;
26181;SDS011;13927;51.534;11.866;2023-08-31T07:26:20;9.57;;;7.93;;
26181;SDS011;13927;51.534;11.866;2023-08-31T07:28:49;9.32;;;7.85;;
26181;SDS011;13927;51.534;11.866;2023-08-31T07:31:15;13.10;;;8.52;;
26181;SDS011;13927;51.534;11.866;2023-08-31T07:36:45;8.75;;;7.80;;
26181;SDS011;13927;51.534;11.866;2023-08-31T07:39:12;8.68;;;7.60;;
26181;SDS011;13927;51.534;11.866;2023-08-31T07:44:39;10.98;;;8.02;;
26181;SDS011;13927;51.534;11.866;2023-08-31T07:47:06;10.13;;;7.43;;
26181;SDS011;13927;51.534;11.866;2023-08-31T07:49:33;10.80;;;7.70;;
26181;SDS011;13927;51.534;11.866;2023-08-31T07:51:59;9.32;;;8.05;;
26181;SDS011;13927;51.534;11.866;2023-08-31T07:54:24;8.70;;;7.80;;
26181;SDS011;13927;51.534;11.866;2023-08-31T07:56:51;9.52;;;8.52;;
26181;SDS011;13927;51.534;11.866;2023-08-31T07:59:17;11.40;;;8.82;;
26181;SDS011;13927;51.534;11.866;2023-08-31T08:01:49;10.25;;;8.05;;
26181;SDS011;13927;51.534;11.866;2023-08-31T08:04:15;8.30;;;7.30;;
26181;SDS011;13927;51.534;11.866;2023-08-31T08:06:44;10.10;;;7.50;;
26181;SDS011;13927;51.534;11.866;2023-08-31T08:09:14;8.82;;;8.02;;
26181;SDS011;13927;51.534;11.866;2023-08-31T08:11:40;11.00;;;7.32;;
26181;SDS011;13927;51.534;11.866;2023-08-31T08:14:07;9.45;;;8.18;;
26181;SDS011;13927;51.534;11.866;2023-08-31T08:16:32;11.68;;;8.43;;
26181;SDS011;13927;51.534;11.866;2023-08-31T08:19:00;10.00;;;7.97;;
26181;SDS011;13927;51.534;11.866;2023-08-31T08:21:26;9.88;;;8.25;;
26181;SDS011;13927;51.534;11.866;2023-08-31T08:23:52;7.18;;;5.85;;
26181;SDS011;13927;51.534;11.866;2023-08-31T08:26:26;7.50;;;5.32;;
26181;SDS011;13927;51.534;11.866;2023-08-31T08:28:53;9.35;;;6.00;;
26181;SDS011;13927;51.534;11.866;2023-08-31T08:31:19;6.50;;;4.65;;
26181;SDS011;13927;51.534;11.866;2023-08-31T08:33:44;5.55;;;4.30;;
26181;SDS011;13927;51.534;11.866;2023-08-31T08:36:13;6.13;;;4.53;;
26181;SDS011;13927;51.534;11.866;2023-08-31T08:38:41;5.80;;;4.65;;
26181;SDS011;13927;51.534;11.866;2023-08-31T08:41:06;7.03;;;4.68;;
26181;SDS011;13927;51.534;11.866;2023-08-31T08:43:33;6.10;;;4.50;;
26181;SDS011;13927;51.534;11.866;2023-08-31T08:46:06;6.78;;;4.00;;
26181;SDS011;13927;51.534;11.866;2023-08-31T08:48:34;4.07;;;3.45;;
26181;SDS011;13927;51.534;11.866;2023-08-31T08:51:05;3.95;;;3.50;;
26181;SDS011;13927;51.534;11.866;2023-08-31T08:53:32;4.22;;;2.90;;
26181;SDS011;13927;51.534;11.866;2023-08-31T08:55:59;3.60;;;2.80;;
26181;SDS011;13927;51.534;11.866;2023-08-31T08:58:25;6.40;;;2.50;;
26181;SDS011;13927;51.534;11.866;2023-08-31T09:00:51;5.45;;;2.38;;
26181;SDS011;13927;51.534;11.866;2023-08-31T09:03:24;6.70;;;2.67;;
26181;SDS011;13927;51.534;11.866;2023-08-31T09:05:50;5.18;;;2.67;;
26181;SDS011;13927;51.534;11.866;2023-08-31T09:08:17;3.45;;;3.00;;
26181;SDS011;13927;51.534;11.866;2023-08-31T09:10:51;7.13;;;3.60;;
26181;SDS011;13927;51.534;11.866;2023-08-31T09:13:17;5.93;;;4.53;;
26181;SDS011;13927;51.534;11.866;2023-08-31T09:15:47;7.40;;;5.65;;
26181;SDS011;13927;51.534;11.866;2023-08-31T09:18:14;6.72;;;5.72;;
26181;SDS011;13927;51.534;11.866;2023-08-31T09:21:01;7.65;;;6.82;;
26181;SDS011;13927;51.534;11.866;2023-08-31T09:23:27;7.47;;;6.65;;
26181;SDS011;13927;51.534;11.866;2023-08-31T09:25:53;8.73;;;6.07;;
26181;SDS011;13927;51.534;11.866;2023-08-31T09:28:22;7.63;;;5.75;;
26181;SDS011;13927;51.534;11.866;2023-08-31T09:30:51;8.15;;;6.05;;
26181;SDS011;13927;51.534;11.866;2023-08-31T09:33:21;6.32;;;5.28;;
26181;SDS011;13927;51.534;11.866;2023-08-31T09:35:47;6.63;;;4.85;;
26181;SDS011;13927;51.534;11.866;2023-08-31T09:38:15;8.23;;;5.40;;
26181;SDS011;13927;51.534;11.866;2023-08-31T09:40:42;6.22;;;5.00;;
26181;SDS011;13927;51.534;11.866;2023-08-31T09:43:09;6.80;;;5.03;;
26181;SDS011;13927;51.534;11.866;2023-08-31T09:45:39;8.40;;;4.68;;
26181;SDS011;13927;51.534;11.866;2023-08-31T09:51:11;6.25;;;4.03;;
26181;SDS011;13927;51.534;11.866;2023-08-31T09:53:48;4.15;;;3.67;;
26181;SDS011;13927;51.534;11.866;2023-08-31T09:56:23;2.90;;;2.60;;
26181;SDS011;13927;51.534;11.866;2023-08-31T09:58:52;4.95;;;3.17;;
26181;SDS011;13927;51.534;11.866;2023-08-31T10:01:18;5.45;;;3.42;;
26181;SDS011;13927;51.534;11.866;2023-08-31T10:03:44;4.75;;;3.03;;
26181;SDS011;13927;51.534;11.866;2023-08-31T10:06:11;4.93;;;3.05;;
26181;SDS011;13927;51.534;11.866;2023-08-31T10:15:47;5.00;;;3.25;;
26181;SDS011;13927;51.534;11.866;2023-08-31T10:18:15;5.80;;;3.10;;
26181;SDS011;13927;51.534;11.866;2023-08-31T10:20:42;6.53;;;2.83;;
26181;SDS011;13927;51.534;11.866;2023-08-31T10:23:10;5.93;;;3.40;;
26181;SDS011;13927;51.534;11.866;2023-08-31T10:28:16;3.20;;;2.35;;
26181;SDS011;13927;51.534;11.866;2023-08-31T10:36:18;4.35;;;2.92;;
26181;SDS011;13927;51.534;11.866;2023-08-31T10:38:45;3.35;;;2.65;;
26181;SDS011;13927;51.534;11.866;2023-08-31T10:41:29;4.22;;;2.65;;
26181;SDS011;13927;51.534;11.866;2023-08-31T10:44:02;4.32;;;3.20;;
26181;SDS011;13927;51.534;11.866;2023-08-31T10:46:43;4.00;;;2.70;;
26181;SDS011;13927;51.534;11.866;2023-08-31T10:51:36;6.03;;;2.65;;
26181;SDS011;13927;51.534;11.866;2023-08-31T10:54:07;4.07;;;2.55;;
26181;SDS011;13927;51.534;11.866;2023-08-31T10:59:45;3.15;;;2.20;;
26181;SDS011;13927;51.534;11.866;2023-08-31T11:02:32;4.47;;;2.20;;
26181;SDS011;13927;51.534;11.866;2023-08-31T11:05:13;5.53;;;2.30;;
26181;SDS011;13927;51.534;11.866;2023-08-31T11:07:44;4.65;;;2.65;;
26181;SDS011;13927;51.534;11.866;2023-08-31T11:12:45;4.38;;;2.63;;
26181;SDS011;13927;51.534;11.866;2023-08-31T11:15:31;2.47;;;1.92;;
26181;SDS011;13927;51.534;11.866;2023-08-31T11:17:57;3.05;;;1.85;;
26181;SDS011;13927;51.534;11.866;2023-08-31T11:20:26;3.05;;;1.60;;
26181;SDS011;13927;51.534;11.866;2023-08-31T11:22:56;3.05;;;1.85;;
26181;SDS011;13927;51.534;11.866;2023-08-31T11:25:22;3.15;;;1.65;;
26181;SDS011;13927;51.534;11.866;2023-08-31T11:27:54;3.40;;;1.60;;
26181;SDS011;13927;51.534;11.866;2023-08-31T11:30:33;3.42;;;1.73;;
26181;SDS011;13927;51.534;11.866;2023-08-31T11:33:05;3.00;;;1.60;;
26181;SDS011;13927;51.534;11.866;2023-08-31T11:35:36;3.08;;;1.70;;
26181;SDS011;13927;51.534;11.866;2023-08-31T11:38:06;2.83;;;2.10;;
26181;SDS011;13927;51.534;11.866;2023-08-31T11:40:32;3.38;;;1.63;;
26181;SDS011;13927;51.534;11.866;2023-08-31T11:42:58;2.65;;;1.40;;
26181;SDS011;13927;51.534;11.866;2023-08-31T11:45:28;3.05;;;1.52;;
26181;SDS011;13927;51.534;11.866;2023-08-31T11:47:55;2.78;;;1.40;;
26181;SDS011;13927;51.534;11.866;2023-08-31T11:50:23;2.83;;;1.30;;
26181;SDS011;13927;51.534;11.866;2023-08-31T11:52:52;3.63;;;1.20;;
26181;SDS011;13927;51.534;11.866;2023-08-31T11:55:21;2.53;;;1.55;;
26181;SDS011;13927;51.534;11.866;2023-08-31T11:57:56;2.25;;;1.33;;
26181;SDS011;13927;51.534;11.866;2023-08-31T12:00:22;2.08;;;1.20;;
26181;SDS011;13927;51.534;11.866;2023-08-31T12:02:58;3.15;;;1.40;;
26181;SDS011;13927;51.534;11.866;2023-08-31T12:05:29;2.38;;;1.27;;
26181;SDS011;13927;51.534;11.866;2023-08-31T12:08:10;2.40;;;1.15;;
26181;SDS011;13927;51.534;11.866;2023-08-31T12:10:42;2.88;;;1.58;;
26181;SDS011;13927;51.534;11.866;2023-08-31T12:13:10;5.35;;;1.90;;
26181;SDS011;13927;51.534;11.866;2023-08-31T12:15:38;4.30;;;1.58;;
26181;SDS011;13927;51.534;11.866;2023-08-31T12:18:10;3.78;;;1.42;;
26181;SDS011;13927;51.534;11.866;2023-08-31T12:20:45;2.42;;;1.33;;
26181;SDS011;13927;51.534;11.866;2023-08-31T12:23:12;2.70;;;1.40;;
26181;SDS011;13927;51.534;11.866;2023-08-31T12:25:47;4.45;;;1.52;;
26181;SDS011;13927;51.534;11.866;2023-08-31T12:28:18;2.50;;;1.75;;
26181;SDS011;13927;51.534;11.866;2023-08-31T12:30:49;3.35;;;1.38;;
26181;SDS011;13927;51.534;11.866;2023-08-31T12:33:17;3.13;;;1.98;;
26181;SDS011;13927;51.534;11.866;2023-08-31T12:35:44;2.95;;;1.70;;
26181;SDS011;13927;51.534;11.866;2023-08-31T12:38:11;2.78;;;2.00;;
26181;SDS011;13927;51.534;11.866;2023-08-31T12:40:37;4.65;;;1.98;;
26181;SDS011;13927;51.534;11.866;2023-08-31T12:43:03;2.85;;;1.75;;
26181;SDS011;13927;51.534;11.866;2023-08-31T12:45:30;1.88;;;1.58;;
26181;SDS011;13927;51.534;11.866;2023-08-31T12:47:56;2.67;;;1.50;;
26181;SDS011;13927;51.534;11.866;2023-08-31T12:50:22;3.40;;;1.55;;
26181;SDS011;13927;51.534;11.866;2023-08-31T12:52:48;2.50;;;1.40;;
26181;SDS011;13927;51.534;11.866;2023-08-31T12:55:14;2.50;;;1.67;;
26181;SDS011;13927;51.534;11.866;2023-08-31T12:57:41;3.90;;;1.60;;
26181;SDS011;13927;51.534;11.866;2023-08-31T13:00:08;3.85;;;1.90;;
26181;SDS011;13927;51.534;11.866;2023-08-31T13:02:52;1.60;;;1.27;;
26181;SDS011;13927;51.534;11.866;2023-08-31T13:05:18;2.67;;;1.75;;
26181;SDS011;13927;51.534;11.866;2023-08-31T13:07:45;2.05;;;1.35;;
26181;SDS011;13927;51.534;11.866;2023-08-31T13:10:11;4.13;;;1.65;;
26181;SDS011;13927;51.534;11.866;2023-08-31T13:12:37;2.95;;;1.55;;
26181;SDS011;13927;51.534;11.866;2023-08-31T13:15:03;2.45;;;1.63;;
26181;SDS011;13927;51.534;11.866;2023-08-31T13:17:29;2.33;;;1.60;;
26181;SDS011;13927;51.534;11.866;2023-08-31T13:19:56;2.08;;;1.15;;
26181;SDS011;13927;51.534;11.866;2023-08-31T13:22:22;2.72;;;1.63;;
26181;SDS011;13927;51.534;11.866;2023-08-31T13:24:50;2.72;;;1.42;;
26181;SDS011;13927;51.534;11.866;2023-08-31T13:27:28;2.28;;;1.50;;
26181;SDS011;13927;51.534;11.866;2023-08-31T13:29:57;4.63;;;1.92;;
26181;SDS011;13927;51.534;11.866;2023-08-31T13:32:22;2.03;;;1.50;;
26181;SDS011;13927;51.534;11.866;2023-08-31T13:34:48;2.13;;;1.42;;
26181;SDS011;13927;51.534;11.866;2023-08-31T13:37:14;1.80;;;1.17;;
26181;SDS011;13927;51.534;11.866;2023-08-31T13:39:40;3.63;;;1.50;;
26181;SDS011;13927;51.534;11.866;2023-08-31T13:42:08;2.65;;;1.40;;
26181;SDS011;13927;51.534;11.866;2023-08-31T13:44:37;1.85;;;1.40;;
26181;SDS011;13927;51.534;11.866;2023-08-31T13:47:03;5.90;;;2.15;;
26181;SDS011;13927;51.534;11.866;2023-08-31T13:49:33;3.10;;;1.65;;
26181;SDS011;13927;51.534;11.866;2023-08-31T13:51:59;4.32;;;1.42;;
26181;SDS011;13927;51.534;11.866;2023-08-31T13:54:25;4.68;;;1.60;;
26181;SDS011;13927;51.534;11.866;2023-08-31T13:56:51;3.35;;;1.80;;
26181;SDS011;13927;51.534;11.866;2023-08-31T13:59:20;3.40;;;1.58;;
26181;SDS011;13927;51.534;11.866;2023-08-31T14:01:45;3.47;;;1.50;;
26181;SDS011;13927;51.534;11.866;2023-08-31T14:04:18;4.57;;;1.83;;
26181;SDS011;13927;51.534;11.866;2023-08-31T14:06:52;3.45;;;1.60;;
26181;SDS011;13927;51.534;11.866;2023-08-31T14:09:18;2.85;;;1.60;;
26181;SDS011;13927;51.534;11.866;2023-08-31T14:11:44;2.38;;;1.55;;
26181;SDS011;13927;51.534;11.866;2023-08-31T14:14:10;3.83;;;1.98;;
26181;SDS011;13927;51.534;11.866;2023-08-31T14:16:48;2.33;;;1.55;;
26181;SDS011;13927;51.534;11.866;2023-08-31T14:19:13;2.30;;;1.60;;
26181;SDS011;13927;51.534;11.866;2023-08-31T14:21:39;2.85;;;1.50;;
26181;SDS011;13927;51.534;11.866;2023-08-31T14:24:05;4.18;;;2.00;;
26181;SDS011;13927;51.534;11.866;2023-08-31T14:26:34;1.98;;;1.17;;
26181;SDS011;13927;51.534;11.866;2023-08-31T14:29:00;2.70;;;1.45;;
26181;SDS011;13927;51.534;11.866;2023-08-31T14:31:26;3.80;;;1.40;;
26181;SDS011;13927;51.534;11.866;2023-08-31T14:33:52;3.13;;;1.20;;
26181;SDS011;13927;51.534;11.866;2023-08-31T14:39:06;1.52;;;1.25;;
26181;SDS011;13927;51.534;11.866;2023-08-31T14:41:47;2.80;;;1.65;;
26181;SDS011;13927;51.534;11.866;2023-08-31T14:44:15;2.03;;;1.10;;
26181;SDS011;13927;51.534;11.866;2023-08-31T14:46:41;2.58;;;1.30;;
26181;SDS011;13927;51.534;11.866;2023-08-31T14:49:07;2.55;;;1.10;;
26181;SDS011;13927;51.534;11.866;2023-08-31T14:51:33;2.53;;;1.75;;
26181;SDS011;13927;51.534;11.866;2023-08-31T14:53:59;2.38;;;1.10;;
26181;SDS011;13927;51.534;11.866;2023-08-31T14:56:25;2.03;;;1.08;;
26181;SDS011;13927;51.534;11.866;2023-08-31T14:58:57;1.92;;;1.25;;
26181;SDS011;13927;51.534;11.866;2023-08-31T15:01:23;1.20;;;0.80;;
26181;SDS011;13927;51.534;11.866;2023-08-31T15:03:50;3.33;;;1.13;;
26181;SDS011;13927;51.534;11.866;2023-08-31T15:06:16;3.88;;;1.25;;
26181;SDS011;13927;51.534;11.866;2023-08-31T15:08:42;2.60;;;1.33;;
26181;SDS011;13927;51.534;11.866;2023-08-31T15:11:08;3.97;;;1.10;;
26181;SDS011;13927;51.534;11.866;2023-08-31T15:13:35;3.63;;;1.20;;
26181;SDS011;13927;51.534;11.866;2023-08-31T15:16:00;2.40;;;1.25;;
26181;SDS011;13927;51.534;11.866;2023-08-31T15:18:27;2.08;;;1.50;;
26181;SDS011;13927;51.534;11.866;2023-08-31T15:20:53;1.67;;;1.50;;
26181;SDS011;13927;51.534;11.866;2023-08-31T15:23:19;2.35;;;1.65;;
26181;SDS011;13927;51.534;11.866;2023-08-31T15:25:48;4.15;;;1.42;;
26181;SDS011;13927;51.534;11.866;2023-08-31T15:28:14;2.97;;;1.60;;
26181;SDS011;13927;51.534;11.866;2023-08-31T15:30:40;2.17;;;1.70;;
26181;SDS011;13927;51.534;11.866;2023-08-31T15:33:06;2.75;;;1.52;;
26181;SDS011;13927;51.534;11.866;2023-08-31T15:35:35;2.53;;;1.67;;
26181;SDS011;13927;51.534;11.866;2023-08-31T15:38:01;2.33;;;1.70;;